createdAt,value
2018-04-19T00:00:34.438Z,5.00
2018-04-19T00:03:01.998Z,5.93
2018-04-19T00:05:29.573Z,4.93
2018-04-19T00:07:57.129Z,5.10
2018-04-19T00:10:25.430Z,7.73
2018-04-19T00:12:52.987Z,7.73
2018-04-19T00:15:21.333Z,8.87
2018-04-19T00:17:48.889Z,6.53
2018-04-19T00:20:16.469Z,5.37
2018-04-19T00:22:44.024Z,5.10
2018-04-19T00:25:11.597Z,4.90
2018-04-19T00:27:39.922Z,4.93
2018-04-19T00:30:07.513Z,4.57
2018-04-19T00:32:35.070Z,4.87
2018-04-19T00:35:02.715Z,5.00
2018-04-19T00:37:30.262Z,4.43
2018-04-19T00:39:57.833Z,5.50
2018-04-19T00:42:25.385Z,4.80
2018-04-19T00:44:53.720Z,4.63
2018-04-19T00:47:21.269Z,4.40
2018-04-19T00:49:48.836Z,4.37
2018-04-19T00:52:16.401Z,4.37
2018-04-19T00:54:43.954Z,5.17
2018-04-19T00:57:11.530Z,4.50
2018-04-19T00:59:39.079Z,5.20
2018-04-19T01:02:06.653Z,5.50
2018-04-19T01:04:34.201Z,4.67
2018-04-19T01:07:01.782Z,5.30
2018-04-19T01:09:29.333Z,5.27
2018-04-19T01:11:56.900Z,5.53
2018-04-19T01:14:24.449Z,5.27
2018-04-19T01:16:52.022Z,5.23
2018-04-19T01:19:19.628Z,5.27
2018-04-19T01:21:47.169Z,5.40
2018-04-19T01:24:14.736Z,5.73
2018-04-19T01:26:42.305Z,5.20
2018-04-19T01:29:09.845Z,4.80
2018-04-19T01:31:37.418Z,5.20
2018-04-19T01:34:05.734Z,5.10
2018-04-19T01:39:32.216Z,4.63
2018-04-19T01:41:59.784Z,5.47
2018-04-19T01:44:27.328Z,5.07
2018-04-19T01:46:54.949Z,5.43
2018-04-19T01:49:22.506Z,4.93
2018-04-19T01:51:50.072Z,5.73
2018-04-19T01:54:17.621Z,5.37
2018-04-19T01:56:45.189Z,5.20
2018-04-19T01:59:12.736Z,5.17
2018-04-19T02:01:40.314Z,4.53
2018-04-19T02:04:07.861Z,5.20
2018-04-19T02:06:35.425Z,5.53
2018-04-19T02:09:03.049Z,4.97
2018-04-19T02:11:31.386Z,5.20
2018-04-19T02:14:00.436Z,5.00
2018-04-19T02:16:29.707Z,4.73
2018-04-19T02:18:57.261Z,4.50
2018-04-19T02:21:24.832Z,5.47
2018-04-19T02:23:52.400Z,5.00
2018-04-19T02:26:20.706Z,5.13
2018-04-19T02:28:48.273Z,5.07
2018-04-19T02:31:15.816Z,7.03
2018-04-19T02:33:43.387Z,5.33
2018-04-19T02:36:10.940Z,5.77
2018-04-19T02:38:38.512Z,5.30
2018-04-19T02:41:06.050Z,5.07
2018-04-19T02:43:33.850Z,5.50
2018-04-19T02:46:01.401Z,5.47
2018-04-19T02:48:28.971Z,4.80
2018-04-19T02:50:56.528Z,4.20
2018-04-19T02:53:24.088Z,5.23
2018-04-19T02:55:51.636Z,5.00
2018-04-19T02:58:19.210Z,4.30
2018-04-19T03:00:46.756Z,6.10
2018-04-19T03:03:14.329Z,5.13
2018-04-19T03:05:41.876Z,5.10
2018-04-19T03:08:09.448Z,4.67
2018-04-19T03:10:37.028Z,4.70
2018-04-19T03:13:04.597Z,4.97
2018-04-19T03:15:32.912Z,6.00
2018-04-19T03:18:00.666Z,4.83
2018-04-19T03:20:28.274Z,5.50
2018-04-19T03:22:55.837Z,5.27
2018-04-19T03:25:23.385Z,5.03
2018-04-19T03:27:50.960Z,4.90
2018-04-19T03:30:18.518Z,5.30
2018-04-19T03:32:47.459Z,5.57
2018-04-19T03:35:15.877Z,5.73
2018-04-19T03:37:44.222Z,11.23
2018-04-19T03:40:11.817Z,7.30
2018-04-19T03:42:39.361Z,7.07
2018-04-19T03:45:06.941Z,8.60
2018-04-19T03:47:34.493Z,7.57
2018-04-19T03:50:02.101Z,6.20
2018-04-19T03:52:29.691Z,6.10
2018-04-19T03:54:57.252Z,5.60
2018-04-19T03:57:24.797Z,5.77
2018-04-19T03:59:52.365Z,5.43
2018-04-19T04:02:19.909Z,6.20
2018-04-19T04:04:47.480Z,6.00
2018-04-19T04:07:15.033Z,5.20
2018-04-19T04:09:42.596Z,5.80
2018-04-19T04:12:10.144Z,6.40
2018-04-19T04:14:37.705Z,5.63
2018-04-19T04:17:18.797Z,5.57
2018-04-19T04:20:02.764Z,5.93
2018-04-19T04:22:41.940Z,5.70
2018-04-19T04:25:10.214Z,7.63
2018-04-19T04:27:37.822Z,7.97
2018-04-19T04:30:05.404Z,8.97
2018-04-19T04:32:34.039Z,6.13
2018-04-19T04:35:03.456Z,5.70
2018-04-19T04:37:31.004Z,5.50
2018-04-19T04:39:58.571Z,7.67
2018-04-19T04:42:26.122Z,6.00
2018-04-19T04:44:53.696Z,6.73
2018-04-19T04:47:21.245Z,6.17
2018-04-19T04:49:49.580Z,6.13
2018-04-19T04:52:17.441Z,6.07
2018-04-19T04:54:45.004Z,7.00
2018-04-19T04:57:12.548Z,6.10
2018-04-19T04:59:40.118Z,6.77
2018-04-19T05:02:07.665Z,6.20
2018-04-19T05:04:36.008Z,7.80
2018-04-19T05:07:03.554Z,6.80
2018-04-19T05:09:31.120Z,7.50
2018-04-19T05:11:59.433Z,8.13
2018-04-19T05:14:27.500Z,6.97
2018-04-19T05:16:55.061Z,8.67
2018-04-19T05:19:23.402Z,6.93
2018-04-19T05:21:51.039Z,7.10
2018-04-19T05:24:18.597Z,6.97
2018-04-19T05:26:46.178Z,6.50
2018-04-19T05:29:13.720Z,6.90
2018-04-19T05:31:41.337Z,6.07
2018-04-19T05:34:08.860Z,6.17
2018-04-19T05:36:36.429Z,5.33
2018-04-19T05:39:04.155Z,6.00
2018-04-19T05:41:31.724Z,5.00
2018-04-19T05:43:59.272Z,4.93
2018-04-19T05:46:26.837Z,6.23
2018-04-19T05:48:54.389Z,6.63
2018-04-19T05:51:21.954Z,6.30
2018-04-19T05:53:49.497Z,4.50
2018-04-19T05:56:17.063Z,5.47
2018-04-19T05:58:44.608Z,5.13
2018-04-19T06:01:12.172Z,4.27
2018-04-19T06:03:39.716Z,5.93
2018-04-19T06:06:07.284Z,6.70
2018-04-19T06:08:34.839Z,5.97
2018-04-19T06:11:02.411Z,5.90
2018-04-19T06:13:29.952Z,6.50
2018-04-19T06:15:57.523Z,5.20
2018-04-19T06:18:25.070Z,6.30
2018-04-19T06:20:52.637Z,6.80
2018-04-19T06:23:20.179Z,6.77
2018-04-19T06:25:48.512Z,6.47
2018-04-19T06:28:16.069Z,7.60
2018-04-19T06:30:43.645Z,6.63
2018-04-19T06:33:11.189Z,7.17
2018-04-19T06:35:38.736Z,6.60
2018-04-19T06:38:06.308Z,6.53
2018-04-19T06:40:33.885Z,6.13
2018-04-19T06:43:01.437Z,5.77
2018-04-19T06:45:28.988Z,6.77
2018-04-19T06:47:56.607Z,6.10
2018-04-19T06:50:24.151Z,6.03
2018-04-19T06:52:51.720Z,6.77
2018-04-19T06:55:19.261Z,5.20
2018-04-19T06:57:47.591Z,5.40
2018-04-19T07:00:15.136Z,9.20
2018-04-19T07:02:42.704Z,12.17
2018-04-19T07:05:10.283Z,7.50
2018-04-19T07:07:37.864Z,5.60
2018-04-19T07:10:06.180Z,6.00
2018-04-19T07:12:33.744Z,5.37
2018-04-19T07:15:01.296Z,4.93
2018-04-19T07:17:28.868Z,4.60
2018-04-19T07:19:56.422Z,4.63
2018-04-19T07:22:23.985Z,3.63
2018-04-19T07:24:51.536Z,4.63
2018-04-19T07:27:19.106Z,8.70
2018-04-19T07:29:47.425Z,5.60
2018-04-19T07:32:15.049Z,4.50
2018-04-19T07:34:42.584Z,4.40
2018-04-19T07:37:10.149Z,5.53
2018-04-19T07:39:37.688Z,5.23
2018-04-19T07:42:05.259Z,5.10
2018-04-19T07:44:32.819Z,5.97
2018-04-19T07:47:00.388Z,5.87
2018-04-19T07:49:27.943Z,6.77
2018-04-19T07:51:55.508Z,6.90
2018-04-19T07:54:23.057Z,6.73
2018-04-19T07:56:50.612Z,6.13
2018-04-19T07:59:18.180Z,7.40
2018-04-19T08:01:45.725Z,6.40
2018-04-19T08:04:13.293Z,5.77
2018-04-19T08:06:40.836Z,6.17
2018-04-19T08:09:08.408Z,6.23
2018-04-19T08:11:35.956Z,5.33
2018-04-19T08:14:03.529Z,5.60
2018-04-19T08:16:31.074Z,5.43
2018-04-19T08:18:58.644Z,6.07
2018-04-19T08:21:26.184Z,5.43
2018-04-19T08:23:53.761Z,6.03
2018-04-19T08:26:21.304Z,5.27
2018-04-19T08:28:48.881Z,4.93
2018-04-19T08:31:16.429Z,5.93
2018-04-19T08:33:44.025Z,4.60
2018-04-19T08:36:11.573Z,4.63
2018-04-19T08:38:39.148Z,5.30
2018-04-19T08:41:06.700Z,4.70
2018-04-19T08:43:34.268Z,5.00
2018-04-19T08:46:01.813Z,4.67
2018-04-19T08:48:29.393Z,5.20
2018-04-19T08:50:56.937Z,5.33
2018-04-19T08:53:24.504Z,5.33
2018-04-19T08:55:52.091Z,4.63
2018-04-19T08:58:19.668Z,4.90
2018-04-19T09:00:47.217Z,5.13
2018-04-19T09:03:14.789Z,4.97
2018-04-19T09:05:42.338Z,4.87
2018-04-19T09:08:09.917Z,5.23
2018-04-19T09:10:37.465Z,5.40
2018-04-19T09:13:05.069Z,5.97
2018-04-19T09:15:32.612Z,5.60
2018-04-19T09:18:00.156Z,5.40
2018-04-19T09:20:27.731Z,5.87
2018-04-19T09:22:55.272Z,6.63
2018-04-19T09:25:22.847Z,6.60
2018-04-19T09:27:50.389Z,4.90
2018-04-19T09:30:17.958Z,5.90
2018-04-19T09:32:45.504Z,6.20
2018-04-19T09:35:13.073Z,6.10
2018-04-19T09:37:40.633Z,6.63
2018-04-19T09:40:08.204Z,6.30
2018-04-19T09:42:35.756Z,6.03
2018-04-19T09:45:03.328Z,6.40
2018-04-19T09:47:30.868Z,6.07
2018-04-19T09:49:58.439Z,6.43
2018-04-19T09:52:25.989Z,6.20
2018-04-19T09:54:53.556Z,6.13
2018-04-19T09:57:21.104Z,6.23
2018-04-19T09:59:48.671Z,5.97
2018-04-19T10:02:16.277Z,6.27
2018-04-19T10:04:46.786Z,5.90
2018-04-19T10:07:14.337Z,5.57
2018-04-19T10:09:41.913Z,6.20
2018-04-19T10:12:10.424Z,5.00
2018-04-19T10:14:38.013Z,5.57
2018-04-19T10:17:05.566Z,4.97
2018-04-19T10:19:33.133Z,4.47
2018-04-19T10:22:00.686Z,5.23
2018-04-19T10:24:28.261Z,4.63
2018-04-19T10:26:55.808Z,4.80
2018-04-19T10:29:23.389Z,5.40
2018-04-19T10:31:50.949Z,5.00
2018-04-19T10:34:18.497Z,4.70
2018-04-19T10:36:46.066Z,5.07
2018-04-19T10:39:13.614Z,5.33
2018-04-19T10:41:41.193Z,5.33
2018-04-19T10:44:08.748Z,5.60
2018-04-19T10:46:36.358Z,5.10
2018-04-19T10:49:03.909Z,5.53
2018-04-19T10:51:31.473Z,4.90
2018-04-19T10:53:59.021Z,5.43
2018-04-19T10:56:26.595Z,5.10
2018-04-19T10:58:54.141Z,5.20
2018-04-19T11:01:21.704Z,4.40
2018-04-19T11:03:49.247Z,4.10
2018-04-19T11:06:16.827Z,4.67
2018-04-19T11:08:44.389Z,4.23
2018-04-19T11:11:12.800Z,5.13
2018-04-19T11:13:40.345Z,4.13
2018-04-19T11:16:07.916Z,5.70
2018-04-19T11:18:35.460Z,4.13
2018-04-19T11:21:03.032Z,4.30
2018-04-19T11:23:30.578Z,4.60
2018-04-19T11:25:58.161Z,5.13
2018-04-19T11:28:25.708Z,4.53
2018-04-19T11:30:53.276Z,5.07
2018-04-19T11:33:20.823Z,4.30
2018-04-19T11:35:48.388Z,5.00
2018-04-19T11:38:15.968Z,4.87
2018-04-19T11:40:43.549Z,4.93
2018-04-19T11:43:11.864Z,4.80
2018-04-19T11:45:39.437Z,4.00
2018-04-19T11:48:07.025Z,4.40
2018-04-19T11:50:34.569Z,3.17
2018-04-19T11:53:02.143Z,4.73
2018-04-19T11:55:30.454Z,3.30
2018-04-19T11:57:58.028Z,4.20
2018-04-19T12:00:25.574Z,4.30
2018-04-19T12:02:53.154Z,3.97
2018-04-19T12:05:20.700Z,4.33
2018-04-19T12:07:48.269Z,3.97
2018-04-19T12:10:16.475Z,4.60
2018-04-19T12:12:44.048Z,4.30
2018-04-19T12:15:11.592Z,3.70
2018-04-19T12:17:39.159Z,3.40
2018-04-19T12:20:06.713Z,4.13
2018-04-19T12:22:34.284Z,4.20
2018-04-19T12:25:02.592Z,4.07
2018-04-19T12:27:30.164Z,4.30
2018-04-19T12:29:57.708Z,3.90
2018-04-19T12:32:25.273Z,3.70
2018-04-19T12:34:52.820Z,4.13
2018-04-19T12:37:20.391Z,3.60
2018-04-19T12:39:47.940Z,3.90
2018-04-19T12:42:15.511Z,4.63
2018-04-19T12:44:43.053Z,3.80
2018-04-19T12:47:10.627Z,4.20
2018-04-19T12:49:38.214Z,4.40
2018-04-19T12:52:05.828Z,3.83
2018-04-19T12:54:33.379Z,3.73
2018-04-19T12:57:02.444Z,4.80
2018-04-19T12:59:29.996Z,3.63
2018-04-19T13:01:57.568Z,3.90
2018-04-19T13:04:25.113Z,3.43
2018-04-19T13:06:52.680Z,3.77
2018-04-19T13:09:20.228Z,3.97
2018-04-19T13:11:47.796Z,3.83
2018-04-19T13:14:15.336Z,3.00
2018-04-19T13:16:42.905Z,3.17
2018-04-19T13:19:10.449Z,3.87
2018-04-19T13:21:38.016Z,3.50
2018-04-19T13:24:05.561Z,4.83
2018-04-19T13:26:33.108Z,5.87
2018-04-19T13:29:00.673Z,4.40
2018-04-19T13:31:28.212Z,4.10
2018-04-19T13:33:55.777Z,3.47
2018-04-19T13:36:23.326Z,4.03
2018-04-19T13:38:50.911Z,3.37
2018-04-19T13:41:18.461Z,3.90
2018-04-19T13:43:46.221Z,2.93
2018-04-19T13:46:13.765Z,4.47
2018-04-19T13:48:41.369Z,4.13
2018-04-19T13:51:08.900Z,3.23
2018-04-19T13:53:36.481Z,3.57
2018-04-19T13:56:04.025Z,4.03
2018-04-19T13:58:31.600Z,3.50
2018-04-19T14:00:59.144Z,3.70
2018-04-19T14:03:26.716Z,3.80
2018-04-19T14:05:54.298Z,3.70
2018-04-19T14:08:21.865Z,3.53
2018-04-19T14:10:49.426Z,4.00
2018-04-19T14:13:17.870Z,3.57
2018-04-19T14:15:45.382Z,3.40
2018-04-19T14:18:12.953Z,3.47
2018-04-19T14:20:40.505Z,4.00
2018-04-19T14:23:08.081Z,3.83
2018-04-19T14:25:35.622Z,3.83
2018-04-19T14:28:03.204Z,3.87
2018-04-19T14:30:30.749Z,3.07
2018-04-19T14:32:58.292Z,3.47
2018-04-19T14:35:25.877Z,3.80
2018-04-19T14:37:53.420Z,3.87
2018-04-19T14:40:20.985Z,3.70
2018-04-19T14:42:48.540Z,3.67
2018-04-19T14:45:16.099Z,3.37
2018-04-19T14:47:43.644Z,5.20
2018-04-19T14:50:11.206Z,3.10
2018-04-19T14:52:38.748Z,3.97
2018-04-19T14:55:07.080Z,3.47
2018-04-19T14:57:34.629Z,3.00
2018-04-19T15:00:02.609Z,3.40
2018-04-19T15:02:30.364Z,3.20
2018-04-19T15:04:57.932Z,3.40
2018-04-19T15:07:25.574Z,4.40
2018-04-19T15:09:53.146Z,3.17
2018-04-19T15:12:21.460Z,3.40
2018-04-19T15:14:49.052Z,3.30
2018-04-19T15:17:16.596Z,3.47
2018-04-19T15:19:44.933Z,3.13
2018-04-19T15:22:12.478Z,3.47
2018-04-19T15:24:40.041Z,2.60
2018-04-19T15:27:07.584Z,3.00
2018-04-19T15:29:35.148Z,2.87
2018-04-19T15:32:02.697Z,3.10
2018-04-19T15:34:30.261Z,3.80
2018-04-19T15:36:57.805Z,3.73
2018-04-19T15:39:25.412Z,2.90
2018-04-19T15:41:52.944Z,3.43
2018-04-19T15:44:20.508Z,3.40
2018-04-19T15:46:48.052Z,3.90
2018-04-19T15:49:15.625Z,3.70
2018-04-19T15:51:43.221Z,3.60
2018-04-19T15:54:11.561Z,4.70
2018-04-19T15:56:39.154Z,3.33
2018-04-19T15:59:06.838Z,4.67
2018-04-19T16:01:34.367Z,4.83
2018-04-19T16:04:01.951Z,4.23
2018-04-19T16:06:30.576Z,4.90
2018-04-19T16:08:58.116Z,4.70
2018-04-19T16:11:25.695Z,4.83
2018-04-19T16:13:53.243Z,3.87
2018-04-19T16:16:20.813Z,3.60
2018-04-19T16:18:48.365Z,4.37
2018-04-19T16:21:15.940Z,4.60
2018-04-19T16:23:43.490Z,4.87
2018-04-19T16:26:11.057Z,3.60
2018-04-19T16:28:39.377Z,5.50
2018-04-19T16:31:07.704Z,3.80
2018-04-19T16:33:35.249Z,3.90
2018-04-19T16:36:03.605Z,5.07
2018-04-19T16:38:31.158Z,6.13
2018-04-19T16:40:58.728Z,5.60
2018-04-19T16:43:26.276Z,5.97
2018-04-19T16:45:53.845Z,4.77
2018-04-19T16:48:21.398Z,4.63
2018-04-19T16:50:48.960Z,5.83
2018-04-19T16:53:16.511Z,5.10
2018-04-19T16:55:44.169Z,5.70
2018-04-19T16:58:11.671Z,4.43
2018-04-19T17:00:39.252Z,5.37
2018-04-19T17:03:06.824Z,5.33
2018-04-19T17:05:34.403Z,5.40
2018-04-19T17:08:01.948Z,6.33
2018-04-19T17:10:30.281Z,5.00
2018-04-19T17:12:57.825Z,5.40
2018-04-19T17:15:25.402Z,5.73
2018-04-19T17:17:52.943Z,6.93
2018-04-19T17:20:20.509Z,5.67
2018-04-19T17:22:48.576Z,7.80
2018-04-19T17:25:16.148Z,6.50
2018-04-19T17:27:44.476Z,6.87
2018-04-19T17:30:12.824Z,6.10
2018-04-19T17:32:40.377Z,8.13
2018-04-19T17:35:07.932Z,5.03
2018-04-19T17:37:37.127Z,5.10
2018-04-19T17:40:04.680Z,5.10
2018-04-19T17:42:32.253Z,6.20
2018-04-19T17:44:59.796Z,4.30
2018-04-19T17:47:27.373Z,5.00
2018-04-19T17:49:56.125Z,4.80
2018-04-19T17:52:24.537Z,5.67
2018-04-19T17:54:52.119Z,6.17
2018-04-19T17:57:20.378Z,5.93
2018-04-19T17:59:48.488Z,5.50
2018-04-19T18:02:16.108Z,5.30
2018-04-19T18:04:43.651Z,4.53
2018-04-19T18:07:11.216Z,4.67
2018-04-19T18:09:38.773Z,3.70
2018-04-19T18:12:06.416Z,4.80
2018-04-19T18:14:34.996Z,5.33
2018-04-19T18:17:02.582Z,4.50
2018-04-19T18:19:30.126Z,4.17
2018-04-19T18:21:57.707Z,4.17
2018-04-19T18:24:25.249Z,3.67
2018-04-19T18:26:53.201Z,5.73
2018-04-19T18:29:20.737Z,4.90
2018-04-19T18:31:48.305Z,5.17
2018-04-19T18:34:15.848Z,6.43
2018-04-19T18:36:43.423Z,6.27
2018-04-19T18:39:10.973Z,5.80
2018-04-19T18:41:38.540Z,6.07
2018-04-19T18:44:06.084Z,5.07
2018-04-19T18:46:33.660Z,5.37
2018-04-19T18:49:01.251Z,5.33
2018-04-19T18:51:28.825Z,4.60
2018-04-19T18:53:56.373Z,4.77
2018-04-19T18:56:23.941Z,5.30
2018-04-19T18:58:51.484Z,5.50
2018-04-19T19:01:19.060Z,5.10
2018-04-19T19:03:46.600Z,5.17
2018-04-19T19:06:14.174Z,4.80
2018-04-19T19:08:41.767Z,5.60
2018-04-19T19:11:10.084Z,4.70
2018-04-19T19:13:37.628Z,5.27
2018-04-19T19:16:08.369Z,4.13
2018-04-19T19:18:47.860Z,4.77
2018-04-19T19:21:16.190Z,3.77
2018-04-19T19:23:43.736Z,4.63
2018-04-19T19:26:11.281Z,4.10
2018-04-19T19:28:38.852Z,4.80
2018-04-19T19:31:06.402Z,4.63
2018-04-19T19:33:33.973Z,4.27
2018-04-19T19:36:01.520Z,4.50
2018-04-19T19:38:29.148Z,4.27
2018-04-19T19:40:56.715Z,4.50
2018-04-19T19:43:25.120Z,4.40
2018-04-19T19:45:53.500Z,4.80
2018-04-19T19:48:21.886Z,5.00
2018-04-19T19:50:49.436Z,4.43
2018-04-19T19:53:17.009Z,5.77
2018-04-19T19:55:44.550Z,4.63
2018-04-19T19:58:12.125Z,5.23
2018-04-19T20:00:39.676Z,5.17
2018-04-19T20:03:07.328Z,4.67
2018-04-19T20:05:34.871Z,4.73
2018-04-19T20:08:02.458Z,5.00
2018-04-19T20:10:30.000Z,5.23
2018-04-19T20:12:57.578Z,5.50
2018-04-19T20:15:25.129Z,5.00
2018-04-19T20:17:52.700Z,5.90
2018-04-19T20:20:20.253Z,6.00
2018-04-19T20:22:47.827Z,5.00
2018-04-19T20:25:15.376Z,4.90
2018-04-19T20:27:42.944Z,5.10
2018-04-19T20:30:10.497Z,5.90
2018-04-19T20:32:38.070Z,6.20
2018-04-19T20:35:05.672Z,6.97
2018-04-19T20:37:33.246Z,7.70
2018-04-19T20:40:00.793Z,6.90
2018-04-19T20:42:28.377Z,7.20
2018-04-19T20:44:55.917Z,7.90
2018-04-19T20:47:23.521Z,8.53
2018-04-19T20:49:51.100Z,7.40
2018-04-19T20:52:19.395Z,7.63
2018-04-19T20:54:46.974Z,8.00
2018-04-19T20:57:14.529Z,7.07
2018-04-19T20:59:42.096Z,6.73
2018-04-19T21:02:09.679Z,8.40
2018-04-19T21:04:37.239Z,7.63
2018-04-19T21:07:05.009Z,7.40
2018-04-19T21:09:32.586Z,6.83
2018-04-19T21:12:00.137Z,7.63
2018-04-19T21:14:27.712Z,7.83
2018-04-19T21:16:55.261Z,7.63
2018-04-19T21:19:22.837Z,8.70
2018-04-19T21:21:50.404Z,6.80
2018-04-19T21:24:17.984Z,7.10
2018-04-19T21:26:45.569Z,8.20
2018-04-19T21:29:13.148Z,7.00
2018-04-19T21:31:40.700Z,7.30
2018-04-19T21:34:08.277Z,7.77
2018-04-19T21:36:35.824Z,7.47
2018-04-19T21:39:03.408Z,7.10
2018-04-19T21:41:30.963Z,7.23
2018-04-19T21:43:58.512Z,7.43
2018-04-19T21:46:26.080Z,7.00
2018-04-19T21:48:53.623Z,6.53
2018-04-19T21:51:21.202Z,6.17
2018-04-19T21:53:49.528Z,6.10
2018-04-19T21:56:17.099Z,6.00
2018-04-19T21:58:44.649Z,6.93
2018-04-19T22:01:12.220Z,6.20
2018-04-19T22:03:39.767Z,5.73
2018-04-19T22:06:07.333Z,7.00
2018-04-19T22:08:34.876Z,5.90
2018-04-19T22:11:02.448Z,5.83
2018-04-19T22:13:30.001Z,5.00
2018-04-19T22:15:57.565Z,4.63
2018-04-19T22:18:25.248Z,5.00
2018-04-19T22:20:52.816Z,4.10
2018-04-19T22:23:20.356Z,4.47
2018-04-19T22:25:47.976Z,4.20
2018-04-19T22:28:15.521Z,4.53
2018-04-19T22:30:44.668Z,4.50
2018-04-19T22:33:12.981Z,5.00
2018-04-19T22:35:40.565Z,4.90
2018-04-19T22:38:08.121Z,5.50
2018-04-19T22:40:35.692Z,4.83
2018-04-19T22:43:03.484Z,4.60
2018-04-19T22:45:31.816Z,4.10
2018-04-19T22:48:00.292Z,4.97
2018-04-19T22:50:28.630Z,4.13
2018-04-19T22:52:56.180Z,4.80
2018-04-19T22:55:23.733Z,4.37
2018-04-19T22:57:51.309Z,4.33
2018-04-19T23:00:19.606Z,4.43
2018-04-19T23:02:47.177Z,4.00
2018-04-19T23:05:14.728Z,4.20
2018-04-19T23:07:43.062Z,3.70
2018-04-19T23:10:10.605Z,3.90
2018-04-19T23:12:38.168Z,4.67
2018-04-19T23:15:05.718Z,4.00
2018-04-19T23:17:33.304Z,4.50
2018-04-19T23:20:00.853Z,4.80
2018-04-19T23:22:37.113Z,3.80
2018-04-19T23:25:04.724Z,3.67
2018-04-19T23:27:32.262Z,3.63
2018-04-19T23:29:59.812Z,3.60
2018-04-19T23:32:27.393Z,4.27
2018-04-19T23:34:55.073Z,3.30
2018-04-19T23:37:22.644Z,3.13
2018-04-19T23:39:50.193Z,3.67
2018-04-19T23:42:17.759Z,3.43
2018-04-19T23:44:45.299Z,4.40
2018-04-19T23:47:12.864Z,3.97
2018-04-19T23:49:41.178Z,3.57
2018-04-19T23:52:08.745Z,4.07
2018-04-19T23:54:36.288Z,3.20
2018-04-19T23:57:03.849Z,4.70
2018-04-19T23:59:31.393Z,4.13
